sensor_id;sensor_type;location;lat;lon;timestamp;pressure;altitude;pressure_sealevel;temperature;humidity
17230;BME280;8731;50.364;8.958;2023-11-21T00:04:17;99443.88;;;10.25;100.00
17230;BME280;8731;50.364;8.958;2023-11-21T00:08:39;99433.94;;;10.28;100.00
17230;BME280;8731;50.364;8.958;2023-11-21T00:13:03;99431.16;;;10.25;100.00
17230;BME280;8731;50.364;8.958;2023-11-21T00:17:25;99434.97;;;10.30;100.00
17230;BME280;8731;50.364;8.958;2023-11-21T00:21:48;99433.66;;;10.35;100.00
17230;BME280;8731;50.364;8.958;2023-11-21T00:26:12;99436.09;;;10.34;100.00
17230;BME280;8731;50.364;8.958;2023-11-21T00:30:38;99431.16;;;10.25;100.00
17230;BME280;8731;50.364;8.958;2023-11-21T00:35:01;99432.56;;;10.22;100.00
17230;BME280;8731;50.364;8.958;2023-11-21T00:39:23;99432.00;;;10.36;100.00
17230;BME280;8731;50.364;8.958;2023-11-21T00:43:46;99430.63;;;10.29;100.00
17230;BME280;8731;50.364;8.958;2023-11-21T00:48:10;99438.78;;;10.25;100.00
17230;BME280;8731;50.364;8.958;2023-11-21T00:52:33;99440.31;;;10.23;100.00
17230;BME280;8731;50.364;8.958;2023-11-21T00:56:56;99444.38;;;10.31;100.00
17230;BME280;8731;50.364;8.958;2023-11-21T01:01:18;99441.69;;;10.20;100.00
17230;BME280;8731;50.364;8.958;2023-11-21T01:05:43;99440.03;;;10.30;100.00
17230;BME280;8731;50.364;8.958;2023-11-21T01:10:06;99441.41;;;10.37;100.00
17230;BME280;8731;50.364;8.958;2023-11-21T01:14:30;99448.06;;;10.25;100.00
17230;BME280;8731;50.364;8.958;2023-11-21T01:18:52;99456.06;;;10.29;100.00
17230;BME280;8731;50.364;8.958;2023-11-21T01:23:16;99464.47;;;10.28;100.00
17230;BME280;8731;50.364;8.958;2023-11-21T01:27:38;99475.03;;;10.23;100.00
17230;BME280;8731;50.364;8.958;2023-11-21T01:32:02;99474.66;;;10.28;100.00
17230;BME280;8731;50.364;8.958;2023-11-21T01:36:30;99473.50;;;10.25;100.00
17230;BME280;8731;50.364;8.958;2023-11-21T01:40:55;99481.72;;;10.12;100.00
17230;BME280;8731;50.364;8.958;2023-11-21T01:45:17;99469.81;;;10.31;100.00
17230;BME280;8731;50.364;8.958;2023-11-21T01:49:40;99461.66;;;10.35;100.00
17230;BME280;8731;50.364;8.958;2023-11-21T01:54:05;99470.81;;;10.33;100.00
17230;BME280;8731;50.364;8.958;2023-11-21T01:58:30;99468.94;;;10.41;100.00
17230;BME280;8731;50.364;8.958;2023-11-21T02:02:53;99479.59;;;10.37;100.00
17230;BME280;8731;50.364;8.958;2023-11-21T02:07:17;99482.91;;;10.36;100.00
17230;BME280;8731;50.364;8.958;2023-11-21T02:11:39;99483.78;;;10.36;100.00
17230;BME280;8731;50.364;8.958;2023-11-21T02:16:04;99490.00;;;10.40;100.00
17230;BME280;8731;50.364;8.958;2023-11-21T02:20:28;99490.66;;;10.37;100.00
17230;BME280;8731;50.364;8.958;2023-11-21T02:24:53;99485.56;;;10.37;100.00
17230;BME280;8731;50.364;8.958;2023-11-21T02:29:15;99488.22;;;10.39;100.00
17230;BME280;8731;50.364;8.958;2023-11-21T02:33:39;99482.25;;;10.38;100.00
17230;BME280;8731;50.364;8.958;2023-11-21T02:38:02;99484.31;;;10.42;100.00
17230;BME280;8731;50.364;8.958;2023-11-21T02:42:28;99482.41;;;10.30;100.00
17230;BME280;8731;50.364;8.958;2023-11-21T02:46:50;99483.78;;;10.36;100.00
17230;BME280;8731;50.364;8.958;2023-11-21T02:51:12;99477.69;;;10.44;100.00
17230;BME280;8731;50.364;8.958;2023-11-21T02:55:36;99470.06;;;10.44;100.00
17230;BME280;8731;50.364;8.958;2023-11-21T03:00:00;99480.13;;;10.43;100.00
17230;BME280;8731;50.364;8.958;2023-11-21T03:04:23;99480.34;;;10.46;100.00
17230;BME280;8731;50.364;8.958;2023-11-21T03:08:47;99486.47;;;10.48;100.00
17230;BME280;8731;50.364;8.958;2023-11-21T03:13:09;99489.13;;;10.39;100.00
17230;BME280;8731;50.364;8.958;2023-11-21T03:17:33;99487.88;;;10.44;100.00
17230;BME280;8731;50.364;8.958;2023-11-21T03:21:55;99489.78;;;10.47;100.00
17230;BME280;8731;50.364;8.958;2023-11-21T03:26:18;99494.59;;;10.54;100.00
17230;BME280;8731;50.364;8.958;2023-11-21T03:30:40;99502.09;;;10.53;100.00
17230;BME280;8731;50.364;8.958;2023-11-21T03:35:04;99502.59;;;10.59;100.00
17230;BME280;8731;50.364;8.958;2023-11-21T03:39:27;99509.47;;;10.60;100.00
17230;BME280;8731;50.364;8.958;2023-11-21T03:43:50;99514.69;;;10.61;100.00
17230;BME280;8731;50.364;8.958;2023-11-21T03:48:12;99510.22;;;10.59;100.00
17230;BME280;8731;50.364;8.958;2023-11-21T03:52:37;99517.97;;;10.60;100.00
17230;BME280;8731;50.364;8.958;2023-11-21T03:56:59;99519.66;;;10.60;100.00
17230;BME280;8731;50.364;8.958;2023-11-21T04:01:22;99523.84;;;10.59;100.00
17230;BME280;8731;50.364;8.958;2023-11-21T04:05:45;99521.94;;;10.57;100.00
17230;BME280;8731;50.364;8.958;2023-11-21T04:10:09;99529.34;;;10.54;100.00
17230;BME280;8731;50.364;8.958;2023-11-21T04:14:33;99533.38;;;10.62;100.00
17230;BME280;8731;50.364;8.958;2023-11-21T04:18:55;99533.38;;;10.62;100.00
17230;BME280;8731;50.364;8.958;2023-11-21T04:23:18;99536.69;;;10.61;100.00
17230;BME280;8731;50.364;8.958;2023-11-21T04:27:43;99541.03;;;10.62;100.00
17230;BME280;8731;50.364;8.958;2023-11-21T04:32:06;99540.91;;;10.60;100.00
17230;BME280;8731;50.364;8.958;2023-11-21T04:36:29;99550.44;;;10.63;100.00
17230;BME280;8731;50.364;8.958;2023-11-21T04:40:52;99548.66;;;10.62;100.00
17230;BME280;8731;50.364;8.958;2023-11-21T04:45:15;99553.25;;;10.56;100.00
17230;BME280;8731;50.364;8.958;2023-11-21T04:49:41;99566.50;;;10.52;100.00
17230;BME280;8731;50.364;8.958;2023-11-21T04:54:04;99557.84;;;10.50;100.00
17230;BME280;8731;50.364;8.958;2023-11-21T04:58:27;99573.38;;;10.53;100.00
17230;BME280;8731;50.364;8.958;2023-11-21T05:02:50;99577.97;;;10.47;100.00
17230;BME280;8731;50.364;8.958;2023-11-21T05:07:13;99582.91;;;10.45;100.00
17230;BME280;8731;50.364;8.958;2023-11-21T05:11:36;99582.00;;;10.34;100.00
17230;BME280;8731;50.364;8.958;2023-11-21T05:15:59;99586.34;;;10.25;100.00
17230;BME280;8731;50.364;8.958;2023-11-21T05:20:25;99588.38;;;10.39;100.00
17230;BME280;8731;50.364;8.958;2023-11-21T05:24:48;99586.09;;;10.32;100.00
17230;BME280;8731;50.364;8.958;2023-11-21T05:29:10;99604.28;;;10.27;100.00
17230;BME280;8731;50.364;8.958;2023-11-21T05:33:33;99617.00;;;10.27;100.00
17230;BME280;8731;50.364;8.958;2023-11-21T05:37:56;99618.91;;;10.29;100.00
17230;BME280;8731;50.364;8.958;2023-11-21T05:42:19;99626.28;;;10.26;100.00
17230;BME280;8731;50.364;8.958;2023-11-21T05:46:41;99634.34;;;10.12;100.00
17230;BME280;8731;50.364;8.958;2023-11-21T05:51:04;99634.47;;;10.03;100.00
17230;BME280;8731;50.364;8.958;2023-11-21T05:55:29;99635.25;;;10.12;100.00
17230;BME280;8731;50.364;8.958;2023-11-21T05:59:52;99637.16;;;10.15;100.00
17230;BME280;8731;50.364;8.958;2023-11-21T06:04:14;99644.41;;;10.10;100.00
17230;BME280;8731;50.364;8.958;2023-11-21T06:08:36;99645.16;;;10.09;100.00
17230;BME280;8731;50.364;8.958;2023-11-21T06:13:00;99650.63;;;10.04;100.00
17230;BME280;8731;50.364;8.958;2023-11-21T06:17:24;99659.13;;;10.04;100.00
17230;BME280;8731;50.364;8.958;2023-11-21T06:21:48;99659.53;;;10.09;100.00
17230;BME280;8731;50.364;8.958;2023-11-21T06:26:10;99672.88;;;10.06;100.00
17230;BME280;8731;50.364;8.958;2023-11-21T06:30:34;99677.97;;;10.06;100.00
17230;BME280;8731;50.364;8.958;2023-11-21T06:34:56;99686.22;;;10.04;100.00
17230;BME280;8731;50.364;8.958;2023-11-21T06:39:19;99688.75;;;10.04;100.00
17230;BME280;8731;50.364;8.958;2023-11-21T06:43:42;99692.97;;;10.03;100.00
17230;BME280;8731;50.364;8.958;2023-11-21T06:48:08;99696.66;;;10.07;100.00
17230;BME280;8731;50.364;8.958;2023-11-21T06:52:30;99715.22;;;10.06;100.00
17230;BME280;8731;50.364;8.958;2023-11-21T06:56:52;99719.81;;;10.10;100.00
17230;BME280;8731;50.364;8.958;2023-11-21T07:01:17;99718.78;;;10.08;100.00
17230;BME280;8731;50.364;8.958;2023-11-21T07:05:40;99732.75;;;10.03;100.00
17230;BME280;8731;50.364;8.958;2023-11-21T07:10:03;99736.06;;;10.02;100.00
17230;BME280;8731;50.364;8.958;2023-11-21T07:14:26;99740.75;;;9.97;100.00
17230;BME280;8731;50.364;8.958;2023-11-21T07:18:49;99744.69;;;9.94;100.00
17230;BME280;8731;50.364;8.958;2023-11-21T07:23:14;99742.28;;;9.95;100.00
17230;BME280;8731;50.364;8.958;2023-11-21T07:27:36;99754.50;;;9.99;100.00
17230;BME280;8731;50.364;8.958;2023-11-21T07:31:59;99762.75;;;9.97;100.00
17230;BME280;8731;50.364;8.958;2023-11-21T07:36:21;99768.09;;;10.00;100.00
17230;BME280;8731;50.364;8.958;2023-11-21T07:40:45;99771.13;;;9.96;100.00
17230;BME280;8731;50.364;8.958;2023-11-21T07:45:08;99775.53;;;9.88;100.00
17230;BME280;8731;50.364;8.958;2023-11-21T07:49:31;99779.03;;;9.99;100.00
17230;BME280;8731;50.364;8.958;2023-11-21T07:53:53;99777.66;;;9.83;100.00
17230;BME280;8731;50.364;8.958;2023-11-21T07:58:17;99786.59;;;9.89;100.00
17230;BME280;8731;50.364;8.958;2023-11-21T08:02:39;99797.47;;;9.96;100.00
17230;BME280;8731;50.364;8.958;2023-11-21T08:07:03;99804.47;;;9.99;100.00
17230;BME280;8731;50.364;8.958;2023-11-21T08:11:25;99802.19;;;10.02;100.00
17230;BME280;8731;50.364;8.958;2023-11-21T08:15:54;99816.41;;;10.00;100.00
17230;BME280;8731;50.364;8.958;2023-11-21T08:20:18;99816.66;;;9.74;100.00
17230;BME280;8731;50.364;8.958;2023-11-21T08:24:42;99817.59;;;10.03;100.00
17230;BME280;8731;50.364;8.958;2023-11-21T08:29:07;99827.53;;;9.92;100.00
17230;BME280;8731;50.364;8.958;2023-11-21T08:33:30;99838.28;;;9.98;100.00
17230;BME280;8731;50.364;8.958;2023-11-21T08:37:53;99841.69;;;10.17;99.88
17230;BME280;8731;50.364;8.958;2023-11-21T08:42:15;99835.94;;;10.28;99.18
17230;BME280;8731;50.364;8.958;2023-11-21T08:46:38;99836.72;;;10.37;98.41
17230;BME280;8731;50.364;8.958;2023-11-21T08:51:04;99830.44;;;10.92;96.33
17230;BME280;8731;50.364;8.958;2023-11-21T08:55:26;99850.63;;;11.29;94.74
17230;BME280;8731;50.364;8.958;2023-11-21T08:59:49;99848.72;;;12.08;93.72
17230;BME280;8731;50.364;8.958;2023-11-21T09:04:15;99850.47;;;12.19;90.32
17230;BME280;8731;50.364;8.958;2023-11-21T09:08:39;99838.31;;;12.27;88.96
17230;BME280;8731;50.364;8.958;2023-11-21T09:13:02;99844.56;;;12.63;86.63
17230;BME280;8731;50.364;8.958;2023-11-21T09:17:24;99846.22;;;13.83;86.04
17230;BME280;8731;50.364;8.958;2023-11-21T09:21:46;99861.22;;;13.78;82.66
17230;BME280;8731;50.364;8.958;2023-11-21T09:26:10;99861.63;;;14.53;80.58
17230;BME280;8731;50.364;8.958;2023-11-21T09:30:33;99864.94;;;14.29;79.61
17230;BME280;8731;50.364;8.958;2023-11-21T09:34:56;99867.78;;;15.28;76.26
17230;BME280;8731;50.364;8.958;2023-11-21T09:39:18;99871.06;;;14.78;76.82
17230;BME280;8731;50.364;8.958;2023-11-21T09:43:43;99869.41;;;16.03;76.51
17230;BME280;8731;50.364;8.958;2023-11-21T09:48:09;99877.16;;;15.53;73.12
17230;BME280;8731;50.364;8.958;2023-11-21T09:52:36;99869.84;;;16.48;74.73
17230;BME280;8731;50.364;8.958;2023-11-21T09:57:10;99878.97;;;14.92;72.24
17230;BME280;8731;50.364;8.958;2023-11-21T10:01:36;99867.72;;;17.09;72.20
17230;BME280;8731;50.364;8.958;2023-11-21T10:06:00;99874.84;;;16.07;67.85
17230;BME280;8731;50.364;8.958;2023-11-21T10:10:26;99870.94;;;18.05;69.51
17230;BME280;8731;50.364;8.958;2023-11-21T10:14:50;99880.69;;;17.96;66.54
17230;BME280;8731;50.364;8.958;2023-11-21T10:19:16;99882.22;;;17.92;64.76
17230;BME280;8731;50.364;8.958;2023-11-21T10:23:39;99883.69;;;18.77;66.20
17230;BME280;8731;50.364;8.958;2023-11-21T10:28:02;99896.56;;;17.46;64.11
17230;BME280;8731;50.364;8.958;2023-11-21T10:32:28;99900.66;;;17.70;63.78
17230;BME280;8731;50.364;8.958;2023-11-21T10:36:53;99896.31;;;18.58;63.77
17230;BME280;8731;50.364;8.958;2023-11-21T10:41:18;99901.00;;;17.34;62.10
17230;BME280;8731;50.364;8.958;2023-11-21T10:45:41;99897.31;;;18.45;62.28
17230;BME280;8731;50.364;8.958;2023-11-21T10:50:05;99890.22;;;18.87;63.93
17230;BME280;8731;50.364;8.958;2023-11-21T10:54:32;99897.25;;;18.29;64.78
17230;BME280;8731;50.364;8.958;2023-11-21T10:58:56;99904.72;;;18.09;65.03
17230;BME280;8731;50.364;8.958;2023-11-21T11:03:19;99896.03;;;16.96;63.18
17230;BME280;8731;50.364;8.958;2023-11-21T11:07:44;99897.00;;;17.11;64.29
17230;BME280;8731;50.364;8.958;2023-11-21T11:12:09;99907.34;;;15.44;65.67
17230;BME280;8731;50.364;8.958;2023-11-21T11:16:32;99916.84;;;15.58;65.81
17230;BME280;8731;50.364;8.958;2023-11-21T11:21:00;99915.16;;;15.70;67.51
17230;BME280;8731;50.364;8.958;2023-11-21T11:25:38;99918.03;;;16.00;68.70
17230;BME280;8731;50.364;8.958;2023-11-21T11:30:26;99926.84;;;15.17;67.72
17230;BME280;8731;50.364;8.958;2023-11-21T11:35:03;99921.94;;;15.45;68.90
17230;BME280;8731;50.364;8.958;2023-11-21T11:39:30;99919.63;;;15.36;68.88
17230;BME280;8731;50.364;8.958;2023-11-21T11:43:56;99931.28;;;15.08;68.65
17230;BME280;8731;50.364;8.958;2023-11-21T11:48:21;99929.91;;;14.76;69.40
17230;BME280;8731;50.364;8.958;2023-11-21T11:52:45;99934.47;;;14.92;69.62
17230;BME280;8731;50.364;8.958;2023-11-21T11:57:10;99933.78;;;14.94;70.50
17230;BME280;8731;50.364;8.958;2023-11-21T12:01:34;99933.31;;;14.88;70.93
17230;BME280;8731;50.364;8.958;2023-11-21T12:05:58;99941.72;;;14.05;71.50
17230;BME280;8731;50.364;8.958;2023-11-21T12:10:23;99938.47;;;14.53;71.27
17230;BME280;8731;50.364;8.958;2023-11-21T12:14:47;99949.75;;;14.10;71.58
17230;BME280;8731;50.364;8.958;2023-11-21T12:19:09;99945.00;;;14.38;71.34
17230;BME280;8731;50.364;8.958;2023-11-21T12:23:34;99943.97;;;14.12;72.07
17230;BME280;8731;50.364;8.958;2023-11-21T12:27:58;99961.53;;;14.08;71.91
17230;BME280;8731;50.364;8.958;2023-11-21T12:32:21;99956.81;;;13.91;72.24
17230;BME280;8731;50.364;8.958;2023-11-21T12:36:43;99966.03;;;13.33;74.00
17230;BME280;8731;50.364;8.958;2023-11-21T12:41:07;99965.28;;;13.24;73.93
17230;BME280;8731;50.364;8.958;2023-11-21T12:45:30;99972.06;;;13.24;74.13
17230;BME280;8731;50.364;8.958;2023-11-21T12:49:52;99977.28;;;13.35;73.95
17230;BME280;8731;50.364;8.958;2023-11-21T12:54:15;99975.19;;;13.09;74.81
17230;BME280;8731;50.364;8.958;2023-11-21T12:58:44;99987.25;;;12.27;77.04
17230;BME280;8731;50.364;8.958;2023-11-21T13:03:09;99989.03;;;12.28;78.43
17230;BME280;8731;50.364;8.958;2023-11-21T13:07:41;99981.84;;;12.65;77.94
17230;BME280;8731;50.364;8.958;2023-11-21T13:12:07;99987.22;;;12.48;78.62
17230;BME280;8731;50.364;8.958;2023-11-21T13:16:32;99994.53;;;12.96;77.75
17230;BME280;8731;50.364;8.958;2023-11-21T13:20:55;99993.44;;;13.14;77.38
17230;BME280;8731;50.364;8.958;2023-11-21T13:25:18;100000.22;;;12.81;78.43
17230;BME280;8731;50.364;8.958;2023-11-21T13:29:41;100000.16;;;13.02;78.56
17230;BME280;8731;50.364;8.958;2023-11-21T13:34:05;100016.09;;;12.57;80.11
17230;BME280;8731;50.364;8.958;2023-11-21T13:38:28;100020.69;;;12.61;80.83
17230;BME280;8731;50.364;8.958;2023-11-21T13:42:53;100018.13;;;12.51;81.01
17230;BME280;8731;50.364;8.958;2023-11-21T13:47:19;100020.97;;;12.34;82.29
17230;BME280;8731;50.364;8.958;2023-11-21T13:51:46;100027.34;;;12.39;82.02
17230;BME280;8731;50.364;8.958;2023-11-21T13:56:12;100033.72;;;12.54;81.96
17230;BME280;8731;50.364;8.958;2023-11-21T14:00:38;100033.97;;;12.47;82.10
17230;BME280;8731;50.364;8.958;2023-11-21T14:05:05;100038.06;;;12.55;82.13
17230;BME280;8731;50.364;8.958;2023-11-21T14:09:31;100043.41;;;12.68;81.63
17230;BME280;8731;50.364;8.958;2023-11-21T14:13:56;100046.75;;;12.57;81.51
17230;BME280;8731;50.364;8.958;2023-11-21T14:18:19;100042.28;;;12.54;81.41
17230;BME280;8731;50.364;8.958;2023-11-21T14:22:50;100041.50;;;12.66;81.76
17230;BME280;8731;50.364;8.958;2023-11-21T14:27:14;100043.41;;;12.68;82.24
17230;BME280;8731;50.364;8.958;2023-11-21T14:31:37;100052.84;;;12.49;83.38
17230;BME280;8731;50.364;8.958;2023-11-21T14:35:59;100051.84;;;12.47;82.90
17230;BME280;8731;50.364;8.958;2023-11-21T14:40:22;100056.19;;;12.38;83.38
17230;BME280;8731;50.364;8.958;2023-11-21T14:44:46;100056.94;;;12.47;82.74
17230;BME280;8731;50.364;8.958;2023-11-21T14:49:08;100056.72;;;12.34;83.18
17230;BME280;8731;50.364;8.958;2023-11-21T14:53:39;100057.72;;;12.15;84.24
17230;BME280;8731;50.364;8.958;2023-11-21T14:58:13;100065.34;;;12.05;84.12
17230;BME280;8731;50.364;8.958;2023-11-21T15:02:39;100067.16;;;12.16;84.30
17230;BME280;8731;50.364;8.958;2023-11-21T15:07:10;100084.66;;;12.32;84.12
17230;BME280;8731;50.364;8.958;2023-11-21T15:11:32;100090.75;;;12.24;84.20
17230;BME280;8731;50.364;8.958;2023-11-21T15:15:55;100084.53;;;12.31;84.18
17230;BME280;8731;50.364;8.958;2023-11-21T15:20:25;100101.88;;;12.24;85.01
17230;BME280;8731;50.364;8.958;2023-11-21T15:24:47;100104.69;;;12.27;84.71
17230;BME280;8731;50.364;8.958;2023-11-21T15:29:09;100104.69;;;12.27;84.75
17230;BME280;8731;50.364;8.958;2023-11-21T15:33:33;100106.72;;;12.21;85.51
17230;BME280;8731;50.364;8.958;2023-11-21T15:37:58;100113.22;;;12.18;84.89
17230;BME280;8731;50.364;8.958;2023-11-21T15:42:20;100118.72;;;12.12;85.46
17230;BME280;8731;50.364;8.958;2023-11-21T15:46:43;100117.56;;;12.09;85.00
17230;BME280;8731;50.364;8.958;2023-11-21T15:51:06;100122.13;;;12.03;84.86
17230;BME280;8731;50.364;8.958;2023-11-21T15:55:34;100127.59;;;11.87;85.81
17230;BME280;8731;50.364;8.958;2023-11-21T16:00:02;100127.59;;;11.97;84.98
17230;BME280;8731;50.364;8.958;2023-11-21T16:04:31;100133.03;;;11.81;86.26
17230;BME280;8731;50.364;8.958;2023-11-21T16:08:56;100141.81;;;11.56;86.89
17230;BME280;8731;50.364;8.958;2023-11-21T16:13:20;100143.03;;;11.69;87.36
17230;BME280;8731;50.364;8.958;2023-11-21T16:17:43;100140.47;;;11.69;86.96
17230;BME280;8731;50.364;8.958;2023-11-21T16:22:05;100159.72;;;11.66;86.92
17230;BME280;8731;50.364;8.958;2023-11-21T16:26:28;100158.50;;;11.52;87.00
17230;BME280;8731;50.364;8.958;2023-11-21T16:30:52;100160.63;;;11.66;86.95
17230;BME280;8731;50.364;8.958;2023-11-21T16:35:16;100169.66;;;11.63;86.89
17230;BME280;8731;50.364;8.958;2023-11-21T16:39:39;100174.56;;;11.51;86.84
17230;BME280;8731;50.364;8.958;2023-11-21T16:44:02;100180.75;;;11.63;86.57
17230;BME280;8731;50.364;8.958;2023-11-21T16:48:26;100181.38;;;11.61;86.91
17230;BME280;8731;50.364;8.958;2023-11-21T16:52:48;100192.97;;;11.38;87.77
17230;BME280;8731;50.364;8.958;2023-11-21T16:57:10;100198.00;;;11.47;86.93
17230;BME280;8731;50.364;8.958;2023-11-21T17:01:34;100200.06;;;11.51;87.06
17230;BME280;8731;50.364;8.958;2023-11-21T17:05:57;100205.44;;;11.35;87.34
17230;BME280;8731;50.364;8.958;2023-11-21T17:10:20;100220.94;;;11.28;87.67
17230;BME280;8731;50.364;8.958;2023-11-21T17:14:42;100217.63;;;11.29;88.03
17230;BME280;8731;50.364;8.958;2023-11-21T17:19:06;100226.53;;;11.24;87.83
17230;BME280;8731;50.364;8.958;2023-11-21T17:23:30;100230.50;;;11.31;87.02
17230;BME280;8731;50.364;8.958;2023-11-21T17:27:52;100245.81;;;11.12;87.06
17230;BME280;8731;50.364;8.958;2023-11-21T17:32:16;100251.22;;;11.06;88.23
17230;BME280;8731;50.364;8.958;2023-11-21T17:36:39;100276.22;;;10.83;88.38
17230;BME280;8731;50.364;8.958;2023-11-21T17:41:03;100277.31;;;10.76;87.36
17230;BME280;8731;50.364;8.958;2023-11-21T17:45:26;100282.41;;;10.76;86.63
17230;BME280;8731;50.364;8.958;2023-11-21T17:49:48;100284.19;;;10.77;86.58
17230;BME280;8731;50.364;8.958;2023-11-21T17:54:10;100282.75;;;10.62;86.66
17230;BME280;8731;50.364;8.958;2023-11-21T17:58:34;100289.56;;;10.36;86.10
17230;BME280;8731;50.364;8.958;2023-11-21T18:02:56;100299.19;;;10.30;85.78
17230;BME280;8731;50.364;8.958;2023-11-21T18:07:19;100314.31;;;10.28;84.64
17230;BME280;8731;50.364;8.958;2023-11-21T18:11:41;100328.34;;;10.16;84.11
17230;BME280;8731;50.364;8.958;2023-11-21T18:16:06;100333.75;;;10.02;84.37
17230;BME280;8731;50.364;8.958;2023-11-21T18:20:28;100346.63;;;9.77;83.51
17230;BME280;8731;50.364;8.958;2023-11-21T18:24:50;100349.75;;;9.66;84.12
17230;BME280;8731;50.364;8.958;2023-11-21T18:29:13;100352.88;;;9.64;83.49
17230;BME280;8731;50.364;8.958;2023-11-21T18:33:41;100354.97;;;9.68;83.66
17230;BME280;8731;50.364;8.958;2023-11-21T18:38:03;100377.72;;;9.49;83.19
17230;BME280;8731;50.364;8.958;2023-11-21T18:42:26;100387.81;;;9.40;83.38
17230;BME280;8731;50.364;8.958;2023-11-21T18:46:49;100406.63;;;9.25;83.76
17230;BME280;8731;50.364;8.958;2023-11-21T18:51:13;100411.72;;;9.25;83.08
17230;BME280;8731;50.364;8.958;2023-11-21T18:55:36;100416.13;;;9.10;83.37
17230;BME280;8731;50.364;8.958;2023-11-21T18:59:59;100421.03;;;9.00;83.19
17230;BME280;8731;50.364;8.958;2023-11-21T19:04:21;100426.66;;;8.98;83.22
17230;BME280;8731;50.364;8.958;2023-11-21T19:08:46;100436.66;;;8.96;83.12
17230;BME280;8731;50.364;8.958;2023-11-21T19:13:08;100452.94;;;8.74;83.76
17230;BME280;8731;50.364;8.958;2023-11-21T19:17:31;100465.09;;;9.01;83.01
17230;BME280;8731;50.364;8.958;2023-11-21T19:21:53;100483.41;;;8.74;83.59
17230;BME280;8731;50.364;8.958;2023-11-21T19:26:17;100491.75;;;8.73;84.14
17230;BME280;8731;50.364;8.958;2023-11-21T19:30:39;100501.72;;;8.63;83.73
17230;BME280;8731;50.364;8.958;2023-11-21T19:35:03;100502.81;;;8.73;83.86
17230;BME280;8731;50.364;8.958;2023-11-21T19:39:28;100510.00;;;8.37;85.02
17230;BME280;8731;50.364;8.958;2023-11-21T19:43:52;100525.72;;;8.57;83.98
17230;BME280;8731;50.364;8.958;2023-11-21T19:48:15;100533.91;;;8.55;84.13
17230;BME280;8731;50.364;8.958;2023-11-21T19:52:41;100534.81;;;8.55;84.87
17230;BME280;8731;50.364;8.958;2023-11-21T19:57:04;100535.03;;;8.50;84.78
17230;BME280;8731;50.364;8.958;2023-11-21T20:01:29;100557.06;;;8.58;84.79
17230;BME280;8731;50.364;8.958;2023-11-21T20:05:51;100572.13;;;8.56;84.44
17230;BME280;8731;50.364;8.958;2023-11-21T20:10:13;100577.63;;;8.52;84.51
17230;BME280;8731;50.364;8.958;2023-11-21T20:14:38;100590.69;;;8.64;84.37
17230;BME280;8731;50.364;8.958;2023-11-21T20:19:02;100589.38;;;8.36;83.21
17230;BME280;8731;50.364;8.958;2023-11-21T20:23:24;100588.00;;;8.24;82.61
17230;BME280;8731;50.364;8.958;2023-11-21T20:27:51;100593.00;;;8.15;81.90
17230;BME280;8731;50.364;8.958;2023-11-21T20:32:13;100598.28;;;8.32;81.39
17230;BME280;8731;50.364;8.958;2023-11-21T20:36:47;100604.66;;;8.29;81.32
17230;BME280;8731;50.364;8.958;2023-11-21T20:41:10;100621.97;;;8.40;81.80
17230;BME280;8731;50.364;8.958;2023-11-21T20:45:34;100620.97;;;8.08;80.90
17230;BME280;8731;50.364;8.958;2023-11-21T20:49:59;100630.97;;;8.22;79.78
17230;BME280;8731;50.364;8.958;2023-11-21T20:54:22;100648.81;;;7.92;77.20
17230;BME280;8731;50.364;8.958;2023-11-21T20:58:45;100640.22;;;7.83;75.76
17230;BME280;8731;50.364;8.958;2023-11-21T21:03:07;100649.78;;;7.86;75.66
17230;BME280;8731;50.364;8.958;2023-11-21T21:07:29;100648.16;;;7.86;76.24
17230;BME280;8731;50.364;8.958;2023-11-21T21:11:53;100651.50;;;7.71;75.70
17230;BME280;8731;50.364;8.958;2023-11-21T21:16:17;100652.56;;;7.73;76.36
17230;BME280;8731;50.364;8.958;2023-11-21T21:20:45;100655.44;;;7.76;75.80
17230;BME280;8731;50.364;8.958;2023-11-21T21:25:09;100676.44;;;7.82;76.34
17230;BME280;8731;50.364;8.958;2023-11-21T21:29:34;100684.78;;;7.74;76.68
17230;BME280;8731;50.364;8.958;2023-11-21T21:33:57;100691.09;;;7.48;76.21
17230;BME280;8731;50.364;8.958;2023-11-21T21:38:19;100682.94;;;7.50;76.71
17230;BME280;8731;50.364;8.958;2023-11-21T21:42:42;100692.41;;;7.44;75.79
17230;BME280;8731;50.364;8.958;2023-11-21T21:47:05;100695.50;;;7.42;74.90
17230;BME280;8731;50.364;8.958;2023-11-21T21:51:28;100712.75;;;7.23;74.73
17230;BME280;8731;50.364;8.958;2023-11-21T21:55:50;100716.72;;;7.28;74.73
17230;BME280;8731;50.364;8.958;2023-11-21T22:00:14;100721.22;;;7.30;74.64
17230;BME280;8731;50.364;8.958;2023-11-21T22:04:39;100733.91;;;7.23;74.58
17230;BME280;8731;50.364;8.958;2023-11-21T22:09:02;100743.63;;;6.90;73.82
17230;BME280;8731;50.364;8.958;2023-11-21T22:13:24;100744.09;;;7.09;74.03
17230;BME280;8731;50.364;8.958;2023-11-21T22:17:47;100762.75;;;6.95;74.53
17230;BME280;8731;50.364;8.958;2023-11-21T22:22:12;100771.09;;;6.87;74.81
17230;BME280;8731;50.364;8.958;2023-11-21T22:26:34;100772.38;;;6.76;74.06
17230;BME280;8731;50.364;8.958;2023-11-21T22:30:56;100787.38;;;6.68;74.58
17230;BME280;8731;50.364;8.958;2023-11-21T22:35:19;100783.75;;;6.73;74.99
17230;BME280;8731;50.364;8.958;2023-11-21T22:39:43;100784.66;;;6.73;75.05
17230;BME280;8731;50.364;8.958;2023-11-21T22:44:05;100781.75;;;6.85;75.26
17230;BME280;8731;50.364;8.958;2023-11-21T22:48:28;100774.53;;;6.81;75.66
17230;BME280;8731;50.364;8.958;2023-11-21T22:52:50;100776.91;;;6.65;75.88
17230;BME280;8731;50.364;8.958;2023-11-21T22:57:14;100780.34;;;6.65;76.50
17230;BME280;8731;50.364;8.958;2023-11-21T23:01:37;100791.72;;;6.62;76.90
17230;BME280;8731;50.364;8.958;2023-11-21T23:05:59;100805.06;;;6.61;77.14
17230;BME280;8731;50.364;8.958;2023-11-21T23:10:23;100797.31;;;6.52;76.67
17230;BME280;8731;50.364;8.958;2023-11-21T23:14:49;100799.66;;;6.36;77.02
17230;BME280;8731;50.364;8.958;2023-11-21T23:19:11;100800.75;;;6.24;77.57
17230;BME280;8731;50.364;8.958;2023-11-21T23:23:37;100810.66;;;6.23;77.85
17230;BME280;8731;50.364;8.958;2023-11-21T23:28:00;100807.44;;;6.24;78.47